Astoria Regional Airport Astoria US
ICAO: KAST
IATA: AST
Category: Medium
Scheduled Services: No

Elevation: 15 ft
TransAlt. 18000 ft.

Airport Communications:
ASOS:135.375
SEATTLE CNTR:124.2
AIR CG:38.18
MC MINNVILLE RDO:122.3
CTAF/UNICOM:122.8

KAST Zoom In..

Runways:

(A) RW 08 length 5795 ft width 100 ft
---- / hdg 77

(B) RW 13 length 4996 ft width 100 ft
---- / hdg 135

(C) RW 26 length 5795 ft width 100 ft
ILS 109.50 / hdg 257

(D) RW 31 length 4996 ft width 100 ft
---- / hdg 315

Location; KAST
Day. 20 / Time. 19.55 Zulu
* Altimeter: 30.21
* Temperature: 19° c. 66.2°f.
* Wind from: 300° Speed 11 kn.
Dewpoint: 12° c.
Visibility: 10 Statute Miles.
Clouds: Clear (automated report).

KAST 201955Z AUTO 30011KT 10SM CLR 19/12 A3021 RMK AO2 SLP230 T01890117


Wind From 300°
Speed 11 kn.

 
 
jpsmedia.com for Web Design worldairports.se 2018   terms of use